This is the latest recevied weather packets stored in our database for station/object OM0AGP-15. If no packets are shown the sender has not sent any weather packets the latest 10 day(s).
| Time | Temp. | Humidity | Pressure | Rain* | Wind** | Luminosity | Snow |
|---|---|---|---|---|---|---|---|
| 1777722387 | 16.11° C | 34% | 1022.1 hPa | - | - | - | - |
| 1777721487 | 16.11° C | 33% | 1022.3 hPa | - | - | - | - |
| 1777718787 | 15.56° C | 37% | 1022.8 hPa | - | - | - | - |
| 1777717887 | 15° C | 38% | 1022.9 hPa | - | - | - | - |
| 1777716987 | 15° C | 40% | 1023 hPa | - | - | - | - |
| 1777716086 | 14.44° C | 40% | 1023.1 hPa | - | - | - | - |
| 1777715186 | 14.44° C | 41% | 1023.3 hPa | - | - | - | - |
| 1777714286 | 13.89° C | 41% | 1023.4 hPa | - | - | - | - |
| 1777713386 | 14.44° C | 41% | 1023.6 hPa | - | - | - | - |
| 1777712486 | 13.89° C | 42% | 1023.6 hPa | - | - | - | - |
| 1777711586 | 13.89° C | 43% | 1023.6 hPa | - | - | - | - |
| 1777710686 | 14.44° C | 42% | 1023.7 hPa | - | - | - | - |
| 1777709786 | 13.89° C | 42% | 1023.9 hPa | - | - | - | - |
| 1777708886 | 13.89° C | 41% | 1023.9 hPa | - | - | - | - |
| 1777707986 | 15.56° C | 38% | 1023.8 hPa | - | - | - | - |
| 1777707086 | 16.11° C | 36% | 1023.9 hPa | - | - | - | - |
| 1777706186 | 18.89° C | 35% | 1023.9 hPa | - | - | - | - |
| 1777705286 | 18.89° C | 34% | 1024 hPa | - | - | - | - |
| 1777704386 | 18.89° C | 33% | 1024.1 hPa | - | - | - | - |
| 1777703486 | 18.89° C | 33% | 1024.1 hPa | - | - | - | - |
| 1777702585 | 19.44° C | 33% | 1024.1 hPa | - | - | - | - |
| 1777701685 | 18.89° C | 35% | 1024.1 hPa | - | - | - | - |
| 1777700785 | 17.78° C | 36% | 1024 hPa | - | - | - | - |
| 1777699885 | 17.22° C | 38% | 1024.1 hPa | - | - | - | - |
| 1777698985 | 15° C | 41% | 1024.1 hPa | - | - | - | - |
* Rain since midnight (hover to see other rain measurements)
** Current wind speed in m/s (hover to see current wind gust speed)